Time;durP1;ratioP1;P1;durP2;ratioP2;P2;SDS_P1;SDS_P2;PMS_P1;PMS_P2;Temp;Humidity;BMP_temperature;BMP_pressure;BME280_temperature;BME280_humidity;BME280_pressure;Samples;Min_cycle;Max_cycle;Signal;HPM_P1;HPM_P2
2021/11/12 00:13:44;;;;;;;;;29.75;29.75;;;;;4.91;81.56;102420.19;5054622;28;11538;-69
2021/11/12 00:16:39;;;;;;;;;33.75;26.75;;;;;4.86;81.52;102414.63;5054485;28;12309;-68
2021/11/12 00:19:35;;;;;;;;;29.25;28.25;;;;;4.90;81.69;102418.50;5047682;28;11549;-68
2021/11/12 00:22:12;;;;;;;;;23.00;23.00;;;;;4.60;83.30;102418.00;5035798;28;11550;-69
2021/11/12 00:25:08;;;;;;;;;19.75;19.50;;;;;4.46;82.98;102401.91;5055565;28;11512;-69
2021/11/12 00:28:04;;;;;;;;;18.50;18.50;;;;;4.71;82.48;102400.66;5053488;28;11530;-69
2021/11/12 00:39:51;;;;;;;;;25.75;24.25;;;;;4.67;82.39;102361.94;5053865;28;11533;-68
2021/11/12 00:49:08;;;;;;;;;16.25;16.25;;;;;4.71;82.54;102360.38;5049692;28;12349;-69
2021/11/12 00:52:08;;;;;;;;;20.25;20.25;;;;;4.79;82.56;102358.31;5048722;28;11644;-68
2021/11/12 00:55:05;;;;;;;;;16.00;16.00;;;;;4.81;82.96;102354.22;5053732;28;11510;-68
2021/11/12 00:58:00;;;;;;;;;21.50;19.75;;;;;4.87;82.83;102341.41;5040363;28;12406;-68
2021/11/12 01:00:57;;;;;;;;;20.00;16.50;;;;;4.94;82.62;102336.59;5053802;28;11582;-69
2021/11/12 01:03:53;;;;;;;;;15.50;15.50;;;;;4.91;82.77;102337.94;5053674;28;11520;-69
2021/11/12 01:06:50;;;;;;;;;18.50;18.50;;;;;4.86;83.09;102331.53;5054073;28;11509;-69
2021/11/12 01:09:46;;;;;;;;;15.00;15.00;;;;;4.58;83.73;102327.84;5039737;28;11516;-69
2021/11/12 01:12:43;;;;;;;;;19.25;19.00;;;;;4.80;82.74;102313.34;5053558;28;12260;-69
2021/11/12 01:15:39;;;;;;;;;20.75;20.75;;;;;4.71;82.82;102318.44;5053212;28;11580;-68
2021/11/12 01:18:36;;;;;;;;;23.25;22.25;;;;;4.74;82.54;102317.94;5053175;28;11512;-68
2021/11/12 01:21:32;;;;;;;;;27.25;27.25;;;;;4.64;83.12;102309.56;5052290;28;11537;-69
2021/11/12 01:24:28;;;;;;;;;20.00;20.00;;;;;4.62;83.21;102309.81;5050493;28;12311;-69
2021/11/12 01:27:23;;;;;;;;;19.50;18.50;;;;;4.72;82.84;102307.22;5040324;28;11552;-69
2021/11/12 01:30:19;;;;;;;;;17.75;17.25;;;;;4.51;83.43;102304.44;5041289;28;11534;-69
2021/11/12 01:33:14;;;;;;;;;21.25;20.25;;;;;4.66;83.08;102304.66;5054030;28;11502;-69
2021/11/12 01:36:32;;;;;;;;;19.50;19.50;;;;;4.68;83.02;102302.50;5052714;28;11522;-69
2021/11/12 01:39:06;;;;;;;;;15.50;15.50;;;;;4.68;83.23;102308.00;5053463;28;11522;-69
2021/11/12 01:41:40;;;;;;;;;19.00;17.25;;;;;4.56;83.69;102308.09;5036088;28;12303;-69
2021/11/12 01:44:41;;;;;;;;;16.50;16.50;;;;;4.68;83.38;102311.56;5052586;28;12398;-69
2021/11/12 01:48:08;;;;;;;;;17.75;17.75;;;;;4.79;83.04;102314.44;5052671;28;11570;-69
2021/11/12 01:51:11;;;;;;;;;22.75;22.50;;;;;4.68;83.22;102317.03;5064290;28;11563;-68
2021/11/12 02:00:27;;;;;;;;;17.00;14.75;;;;;4.78;82.79;102304.56;5032614;28;11525;-68
2021/11/12 02:03:23;;;;;;;;;20.75;19.00;;;;;4.80;82.55;102305.13;5045937;28;11602;-69
2021/11/12 02:06:23;;;;;;;;;17.25;17.25;;;;;4.72;82.57;102307.22;5052213;28;11600;-69
2021/11/12 02:09:20;;;;;;;;;20.50;20.00;;;;;4.80;82.62;102311.44;5052392;28;11574;-69
2021/11/12 02:12:27;;;;;;;;;20.00;20.00;;;;;4.71;82.56;102305.56;5052330;28;11498;-69
2021/11/12 02:15:24;;;;;;;;;10.25;10.25;;;;;4.82;82.58;102306.53;5052443;28;11550;-68
2021/11/12 02:18:28;;;;;;;;;19.50;19.50;;;;;4.82;82.35;102311.19;5053686;28;11555;-69
2021/11/12 02:22:03;;;;;;;;;37.50;37.50;;;;;4.79;82.59;102309.78;5052148;28;11537;-69
2021/11/12 02:24:19;;;;;;;;;22.25;22.25;;;;;4.83;82.65;102310.94;5033121;28;11575;-69
2021/11/12 02:27:17;;;;;;;;;12.50;12.50;;;;;4.60;83.92;102313.88;5051476;28;11649;-69
2021/11/12 02:29:53;;;;;;;;;26.50;26.50;;;;;4.66;83.35;102316.44;5051301;28;11523;-69
2021/11/12 02:32:25;;;;;;;;;13.00;13.00;;;;;4.73;82.97;102319.00;5053149;28;11562;-69
2021/11/12 02:35:21;;;;;;;;;16.00;14.50;;;;;4.72;83.23;102309.97;5040502;28;11508;-70
2021/11/12 02:37:49;;;;;;;;;16.00;16.00;;;;;4.72;82.87;102309.97;5052704;28;12340;-69
2021/11/12 02:40:45;;;;;;;;;21.75;21.75;;;;;4.62;83.28;102307.09;5051955;28;11521;-69
2021/11/12 02:43:45;;;;;;;;;13.50;12.25;;;;;4.67;83.16;102311.78;5053582;28;11510;-69
2021/11/12 02:46:28;;;;;;;;;18.50;18.50;;;;;4.74;82.50;102310.53;5051765;28;11604;-69
2021/11/12 02:49:23;;;;;;;;;22.25;22.25;;;;;4.70;83.00;102309.41;5038583;28;11526;-69
2021/11/12 02:51:54;;;;;;;;;22.75;22.25;;;;;4.71;82.87;102312.97;5052343;28;12367;-69
2021/11/12 02:54:50;;;;;;;;;20.50;20.50;;;;;4.72;82.46;102311.88;5051867;28;11533;-69
2021/11/12 02:57:46;;;;;;;;;22.00;19.50;;;;;4.70;82.90;102306.66;5051528;28;11584;-69
2021/11/12 03:00:24;;;;;;;;;15.50;15.50;;;;;4.65;82.84;102303.81;5047353;28;11604;-69
2021/11/12 03:03:21;;;;;;;;;19.75;19.75;;;;;4.64;83.53;102306.81;5018662;28;11531;-69
2021/11/12 03:06:16;;;;;;;;;17.50;17.50;;;;;4.68;82.97;102297.84;5031716;28;11608;-69
2021/11/12 03:09:13;;;;;;;;;17.00;16.50;;;;;4.74;83.14;102294.09;5031849;28;11532;-69
2021/11/12 03:12:09;;;;;;;;;19.50;16.00;;;;;4.76;83.03;102290.28;5033281;28;11517;-69
2021/11/12 03:15:05;;;;;;;;;17.50;17.25;;;;;4.71;83.61;102291.88;5031385;28;11512;-68
2021/11/12 03:18:01;;;;;;;;;17.00;17.00;;;;;4.77;83.39;102286.47;5032952;28;11546;-69
2021/11/12 03:20:53;;;;;;;;;15.75;15.75;;;;;4.84;83.08;102292.59;5032840;28;11540;-68
2021/11/12 03:24:02;;;;;;;;;18.00;18.00;;;;;4.77;83.62;102283.72;5018443;28;11567;-69
2021/11/12 04:01:52;;;;;;;;;15.75;15.75;;;;;5.21;82.18;102237.91;5050067;28;11495;-69
2021/11/12 05:25:32;;;;;;;;;10.25;10.25;;;;;5.43;79.36;102170.09;5051368;28;11608;-69
2021/11/12 05:57:36;;;;;;;;;9.25;9.25;;;;;6.25;80.41;102146.03;5051083;28;11429;-69
2021/11/12 06:00:32;;;;;;;;;11.25;11.25;;;;;6.26;80.54;102128.44;5050011;28;11461;-69
2021/11/12 06:03:27;;;;;;;;;9.75;9.75;;;;;6.43;80.06;102122.75;5050877;28;11554;-69
2021/11/12 06:06:23;;;;;;;;;11.00;9.75;;;;;6.44;80.23;102119.75;5035334;28;11490;-70
2021/11/12 06:08:52;;;;;;;;;10.00;10.00;;;;;6.59;80.49;102113.47;5051888;28;11515;-69
2021/11/12 06:11:37;;;;;;;;;9.75;9.75;;;;;6.66;80.45;102114.03;5021845;28;11561;-69
2021/11/12 06:14:33;;;;;;;;;11.75;11.75;;;;;6.68;80.76;102109.13;5049698;28;11453;-69
2021/11/12 06:17:28;;;;;;;;;9.75;9.75;;;;;6.79;80.21;102105.28;5048839;28;11444;-69
2021/11/12 06:20:16;;;;;;;;;9.50;9.50;;;;;6.88;79.79;102102.84;5051050;28;11496;-69
2021/11/12 06:22:45;;;;;;;;;15.50;15.50;;;;;6.91;79.51;102099.56;5051534;28;12262;-70
2021/11/12 06:25:12;;;;;;;;;14.25;14.25;;;;;6.80;79.94;102093.19;5050870;28;11477;-69
2021/11/12 06:28:08;;;;;;;;;8.50;8.50;;;;;7.08;79.03;102091.88;5050279;28;12262;-69
2021/11/12 06:31:04;;;;;;;;;9.50;9.50;;;;;7.02;79.19;102100.41;5059498;28;11480;-69
2021/11/12 06:33:32;;;;;;;;;10.75;10.75;;;;;7.27;78.92;102108.66;5035283;28;11486;-70
2021/11/12 06:36:23;;;;;;;;;10.25;10.25;;;;;7.15;78.04;102108.94;5052297;28;11472;-70
2021/11/12 06:38:52;;;;;;;;;11.00;11.00;;;;;7.11;78.01;102102.31;5052579;28;11469;-71
2021/11/12 06:50:23;;;;;;;;;10.25;10.25;;;;;7.39;76.34;102097.41;5051382;28;11500;-69
2021/11/12 06:53:19;;;;;;;;;16.00;16.00;;;;;7.87;75.17;102087.72;5051673;28;11420;-69
2021/11/12 06:56:22;;;;;;;;;132.00;110.00;;;;;7.91;75.21;102093.50;5052150;28;11438;-69
2021/11/12 06:58:58;;;;;;;;;25.75;25.75;;;;;7.93;74.94;102094.88;5066955;28;8863;-69
2021/11/12 07:01:27;;;;;;;;;36.00;33.75;;;;;7.96;74.65;102094.28;5052369;28;11471;-69
2021/11/12 07:03:56;;;;;;;;;19.25;17.25;;;;;8.02;75.01;102086.84;5052602;28;11547;-69
2021/11/12 07:06:24;;;;;;;;;15.00;15.00;;;;;7.90;74.47;102089.06;5052469;28;11482;-69
2021/11/12 07:09:07;;;;;;;;;16.75;16.75;;;;;8.10;74.65;102086.28;5033968;28;11471;-69
2021/11/12 07:11:36;;;;;;;;;25.00;25.00;;;;;8.24;73.95;102081.81;5052469;28;11449;-68
2021/11/12 07:14:04;;;;;;;;;14.00;14.00;;;;;8.21;74.00;102082.41;5052139;28;11658;-69
2021/11/12 07:17:00;;;;;;;;;12.50;11.25;;;;;7.90;75.22;102080.81;5050958;28;11648;-69
2021/11/12 07:19:58;;;;;;;;;15.25;15.25;;;;;8.29;74.43;102079.06;5050858;28;11630;-69
2021/11/12 07:22:40;;;;;;;;;16.25;16.25;;;;;8.55;73.52;102073.44;5031077;28;11512;-69
2021/11/12 07:25:36;;;;;;;;;13.75;12.00;;;;;8.63;72.55;102078.38;5050687;28;11520;-69
2021/11/12 07:28:31;;;;;;;;;17.00;17.00;;;;;8.62;72.46;102079.47;5050769;28;11496;-69
2021/11/12 07:31:27;;;;;;;;;16.75;16.75;;;;;8.63;72.54;102079.19;5051144;28;11480;-69
2021/11/12 07:34:28;;;;;;;;;15.50;14.50;;;;;8.71;72.89;102075.00;5038077;28;11467;-68
2021/11/12 07:37:28;;;;;;;;;14.50;14.50;;;;;8.78;72.61;102071.94;5052360;28;11597;-69
2021/11/12 07:39:58;;;;;;;;;14.25;14.25;;;;;8.72;72.67;102073.06;5037943;28;11537;-69
2021/11/12 07:45:08;;;;;;;;;11.50;11.50;;;;;9.03;72.63;102071.75;5044603;28;11543;-70
2021/11/12 07:48:04;;;;;;;;;13.00;12.25;;;;;8.83;72.92;102066.41;5040357;28;12082;-69
2021/11/12 07:50:36;;;;;;;;;12.25;11.50;;;;;9.03;72.64;102057.97;5037973;28;11475;-68
2021/11/12 07:53:04;;;;;;;;;11.00;11.00;;;;;9.17;72.02;102055.38;5055555;28;11492;-69
2021/11/12 07:55:36;;;;;;;;;12.75;12.75;;;;;9.25;72.03;102057.53;5055432;28;11570;-70
2021/11/12 07:58:11;;;;;;;;;12.50;12.50;;;;;9.26;71.65;102042.59;5037574;28;11465;-69
2021/11/12 08:00:53;;;;;;;;;13.50;13.50;;;;;9.39;70.84;102036.41;5053169;28;11493;-70
2021/11/12 08:03:21;;;;;;;;;11.00;11.00;;;;;9.68;69.95;102041.13;5055111;28;11931;-69
2021/11/12 08:06:06;;;;;;;;;9.25;9.25;;;;;9.54;70.07;102040.97;5050131;28;11182;-69
2021/11/12 08:12:06;;;;;;;;;11.00;11.00;;;;;9.72;70.00;102033.88;5067374;28;11056;-67
2021/11/12 08:15:19;;;;;;;;;12.25;12.25;;;;;9.66;70.46;102030.38;5059559;28;11145;-69
2021/11/12 08:21:24;;;;;;;;;35.25;33.50;;;;;9.89;70.24;102027.88;5036934;28;11505;-69
2021/11/12 08:24:35;;;;;;;;;13.00;11.75;;;;;9.82;70.86;102019.16;5062865;28;11448;-70
2021/11/12 08:28:00;;;;;;;;;14.25;14.25;;;;;9.74;71.03;102010.38;5044393;28;11256;-70
2021/11/12 08:31:05;;;;;;;;;12.00;12.00;;;;;9.93;71.16;102004.91;5039738;28;11969;-70
2021/11/12 08:34:15;;;;;;;;;7.75;7.75;;;;;9.77;71.75;102006.22;5070229;28;11089;-70
2021/11/12 08:44:05;;;;;;;;;8.25;8.25;;;;;10.18;71.42;101973.34;5074169;28;10896;-69
2021/11/12 08:47:00;;;;;;;;;11.00;11.00;;;;;10.68;70.30;101976.53;5073850;28;10880;-70
2021/11/12 08:49:57;;;;;;;;;13.00;13.00;;;;;10.58;69.79;101974.78;5068832;28;10838;-70
2021/11/12 08:53:03;;;;;;;;;13.50;13.50;;;;;10.71;69.26;101966.81;5051985;28;10998;-70
2021/11/12 08:55:59;;;;;;;;;9.00;8.50;;;;;10.77;69.48;101976.69;5053570;28;10953;-70
2021/11/12 08:58:54;;;;;;;;;9.00;9.00;;;;;10.34;70.97;101967.66;5040975;28;10805;-70
2021/11/12 09:01:51;;;;;;;;;9.00;8.75;;;;;10.70;70.43;101960.47;5041008;28;10817;-68
2021/11/12 09:04:48;;;;;;;;;12.00;9.00;;;;;10.61;71.00;101951.19;5053028;28;10845;-69
2021/11/12 09:07:47;;;;;;;;;9.00;9.00;;;;;10.98;70.51;101942.03;5063473;28;10840;-69
2021/11/12 09:10:18;;;;;;;;;11.00;11.00;;;;;11.02;70.76;101943.03;5054209;28;10749;-69
2021/11/12 09:12:52;;;;;;;;;11.50;11.50;;;;;10.94;70.84;101934.63;5054322;28;10644;-69
2021/11/12 09:15:52;;;;;;;;;10.50;10.50;;;;;10.91;71.46;101940.75;5029534;28;11368;-69
2021/11/12 09:18:48;;;;;;;;;9.25;9.25;;;;;11.08;70.79;101944.59;5039676;28;10817;-69
2021/11/12 09:21:17;;;;;;;;;12.25;9.25;;;;;10.91;71.36;101935.22;5054007;28;10588;-69
2021/11/12 09:23:46;;;;;;;;;10.00;10.00;;;;;10.98;70.93;101936.47;5053752;28;10631;-69
2021/11/12 09:26:15;;;;;;;;;7.00;7.00;;;;;10.94;71.17;101924.34;5058077;28;10743;-69
2021/11/12 09:28:43;;;;;;;;;13.00;12.00;;;;;11.08;71.21;101929.94;5053803;28;10459;-69
2021/11/12 09:31:11;;;;;;;;;10.00;10.00;;;;;11.25;70.84;101918.28;5053285;28;10624;-68
2021/11/12 09:33:52;;;;;;;;;16.50;13.50;;;;;11.26;70.84;101917.97;5050437;28;10556;-68
2021/11/12 09:36:20;;;;;;;;;13.25;13.25;;;;;11.55;69.88;101911.31;5040867;28;10397;-68
2021/11/12 09:39:16;;;;;;;;;14.75;13.00;;;;;11.70;69.58;101909.06;5032557;28;10475;-69
2021/11/12 09:42:11;;;;;;;;;10.00;10.00;;;;;11.39;70.36;101908.03;5035805;28;10583;-68
2021/11/12 09:44:39;;;;;;;;;14.00;13.00;;;;;11.74;69.90;101902.91;5064570;28;10563;-68
2021/11/12 09:47:09;;;;;;;;;11.25;11.25;;;;;11.82;69.71;101899.44;5053341;28;10397;-69
2021/11/12 09:49:56;;;;;;;;;8.75;8.75;;;;;11.47;71.30;101881.56;5053928;28;10358;-68
2021/11/12 09:52:26;;;;;;;;;8.00;8.00;;;;;11.57;70.86;101881.34;5062880;28;11190;-69
2021/11/12 09:54:54;;;;;;;;;9.00;9.00;;;;;11.45;71.45;101873.56;5052653;28;10298;-70
2021/11/12 09:57:41;;;;;;;;;9.00;9.00;;;;;11.72;70.86;101880.22;5041318;28;11263;-70
2021/11/12 10:00:26;;;;;;;;;8.75;8.75;;;;;12.02;69.95;101865.72;5050662;28;10459;-68
2021/11/12 10:03:03;;;;;;;;;6.00;5.50;;;;;12.11;69.83;101866.59;5052455;28;10296;-68
2021/11/12 10:05:48;;;;;;;;;9.00;9.00;;;;;12.35;68.34;101865.53;5052844;28;10255;-70
2021/11/12 10:08:44;;;;;;;;;9.25;9.25;;;;;12.26;69.05;101862.66;5041415;28;10106;-70
2021/11/12 10:11:50;;;;;;;;;10.50;10.50;;;;;12.33;68.56;101863.03;5041366;28;10158;-70
2021/11/12 10:14:26;;;;;;;;;9.00;9.00;;;;;12.19;68.63;101852.03;5033026;28;10189;-71
2021/11/12 10:16:57;;;;;;;;;8.00;8.00;;;;;12.33;68.40;101843.63;5034979;28;10153;-70
2021/11/12 10:19:49;;;;;;;;;10.75;10.75;;;;;12.32;68.12;101852.25;5048829;28;9993;-70
2021/11/12 10:22:47;;;;;;;;;11.25;11.25;;;;;12.23;68.67;101850.25;5050285;28;10027;-70
2021/11/12 10:25:28;;;;;;;;;10.75;10.75;;;;;12.15;69.04;101828.81;5035677;28;10313;-70
2021/11/12 10:27:58;;;;;;;;;10.25;9.75;;;;;12.17;69.18;101845.94;5051475;28;11188;-69
2021/11/12 10:30:28;;;;;;;;;8.25;8.25;;;;;12.21;69.43;101837.81;5049694;28;10165;-70
2021/11/12 10:32:58;;;;;;;;;8.00;8.00;;;;;12.21;69.37;101846.16;5051434;28;10961;-70
2021/11/12 10:35:30;;;;;;;;;11.75;11.75;;;;;11.85;70.42;101832.28;5033865;28;10051;-71
2021/11/12 10:38:08;;;;;;;;;11.25;11.25;;;;;11.95;70.02;101843.13;5031214;28;10196;-71
2021/11/12 10:40:37;;;;;;;;;10.75;10.75;;;;;11.88;70.67;101834.41;5051450;28;11046;-71
2021/11/12 10:43:05;;;;;;;;;11.00;11.00;;;;;12.03;69.99;101839.63;5051118;28;10396;-71
2021/11/12 10:45:36;;;;;;;;;13.75;13.75;;;;;12.00;70.25;101831.13;5050978;28;10511;-70
2021/11/12 10:48:32;;;;;;;;;12.75;12.75;;;;;11.73;71.15;101835.59;5036130;28;10346;-71
2021/11/12 10:51:18;;;;;;;;;12.00;12.00;;;;;12.06;70.39;101832.66;5049133;28;10179;-72
2021/11/12 10:54:00;;;;;;;;;13.50;13.00;;;;;12.03;70.53;101834.06;5050342;28;10106;-72
2021/11/12 10:56:48;;;;;;;;;8.00;8.00;;;;;11.81;71.07;101826.56;5035897;28;10538;-72
2021/11/12 10:59:16;;;;;;;;;16.00;14.50;;;;;11.99;70.78;101823.94;5015010;28;10184;-71
2021/11/12 11:02:29;;;;;;;;;15.00;15.00;;;;;11.86;71.12;101818.09;5046354;28;10312;-71
2021/11/12 11:05:31;;;;;;;;;9.75;9.75;;;;;12.01;70.95;101807.81;5071018;28;10495;-70
2021/11/12 11:08:30;;;;;;;;;12.00;12.00;;;;;11.81;71.53;101812.69;5068972;28;10333;-72
2021/11/12 11:11:11;;;;;;;;;8.50;8.00;;;;;12.04;70.79;101791.38;5042775;28;10286;-72
2021/11/12 11:14:32;;;;;;;;;15.50;15.50;;;;;12.44;70.32;101797.84;5055505;28;10330;-71
2021/11/12 11:17:27;;;;;;;;;15.50;13.75;;;;;12.74;68.76;101789.88;5055351;28;10263;-71
2021/11/12 11:20:23;;;;;;;;;10.50;10.00;;;;;12.51;69.08;101791.88;5065110;28;10090;-71
2021/11/12 11:23:05;;;;;;;;;11.25;10.25;;;;;12.24;69.86;101790.03;5049529;28;10178;-71
2021/11/12 11:25:34;;;;;;;;;4.00;4.00;;;;;12.47;69.07;101786.09;5049816;28;10081;-70
2021/11/12 11:28:03;;;;;;;;;14.50;13.50;;;;;13.13;67.56;101779.91;5075570;28;10164;-68
2021/11/12 11:31:05;;;;;;;;;14.75;13.75;;;;;13.59;65.94;101785.75;5075273;28;9952;-68
2021/11/12 11:33:50;;;;;;;;;10.50;10.50;;;;;14.10;63.93;101772.19;5075280;28;10108;-69
2021/11/12 11:36:45;;;;;;;;;11.25;11.25;;;;;14.10;63.79;101781.34;5059412;28;9617;-69
2021/11/12 11:39:20;;;;;;;;;8.25;8.25;;;;;14.38;62.09;101772.66;5060737;28;9794;-69
2021/11/12 11:42:17;;;;;;;;;9.00;9.00;;;;;14.59;61.50;101781.97;5046847;28;9553;-69
2021/11/12 11:45:17;;;;;;;;;9.33;9.33;;;;;14.12;62.63;101784.66;5056846;28;9503;-69
2021/11/12 11:48:15;;;;;;;;;10.00;10.00;;;;;13.59;63.39;101773.84;5053434;28;9382;-69
2021/11/12 11:50:53;;;;;;;;;9.67;9.67;;;;;14.19;61.92;101776.63;5037181;28;9347;-69
2021/11/12 11:53:45;;;;;;;;;10.33;10.00;;;;;13.99;62.94;101763.38;5041757;28;9336;-68
2021/11/12 11:56:51;;;;;;;;;11.00;9.00;;;;;13.60;63.40;101770.72;5034523;28;9466;-68
2021/11/12 11:59:47;;;;;;;;;8.25;8.00;;;;;13.79;62.97;101766.81;5045313;28;10149;-69
2021/11/12 12:02:18;;;;;;;;;7.00;7.00;;;;;13.91;62.74;101764.19;5060509;28;9483;-68
2021/11/12 12:05:00;;;;;;;;;6.50;6.50;;;;;14.18;62.04;101763.84;5055035;28;9811;-69
2021/11/12 12:07:56;;;;;;;;;9.00;9.00;;;;;14.28;61.64;101759.91;5045281;28;10204;-69
2021/11/12 12:10:27;;;;;;;;;9.75;9.75;;;;;13.85;62.94;101757.97;5046177;28;9298;-69
2021/11/12 12:13:27;;;;;;;;;6.25;6.25;;;;;13.69;63.49;101759.59;5055573;28;9635;-68
2021/11/12 12:16:06;;;;;;;;;8.50;6.25;;;;;13.69;62.75;101762.38;5052466;28;9546;-68
2021/11/12 12:18:47;;;;;;;;;8.67;8.67;;;;;13.47;63.41;101768.06;5068178;28;9560;-69
2021/11/12 12:30:53;;;;;;;;;9.50;9.50;;;;;14.02;62.49;101767.44;5002686;28;9452;-68
2021/11/12 13:25:49;;;;;;;;;6.00;6.00;;;;;13.91;61.71;101753.88;5073960;28;9732;-68
2021/11/12 13:28:31;;;;;;;;;5.50;5.50;;;;;13.94;61.24;101744.06;5074100;28;10148;-68
2021/11/12 13:31:03;;;;;;;;;10.50;10.50;;;;;13.78;61.80;101743.75;5074208;28;9472;-69
2021/11/12 13:33:39;;;;;;;;;3.00;3.00;;;;;13.86;61.45;101736.53;5074125;28;10342;-68
2021/11/12 13:36:30;;;;;;;;;8.33;8.33;;;;;13.70;61.86;101740.97;5040319;28;9467;-68
2021/11/12 13:39:17;;;;;;;;;5.00;5.00;;;;;13.55;61.99;101737.50;5052779;28;9512;-69
2021/11/12 13:41:47;;;;;;;;;8.25;8.25;;;;;13.45;62.67;101743.41;5035491;28;9116;-67
2021/11/12 13:44:44;;;;;;;;;6.00;6.00;;;;;13.19;63.21;101746.09;5056095;28;9620;-68
2021/11/12 13:47:39;;;;;;;;;6.00;6.00;;;;;13.14;63.44;101745.44;5062942;28;9491;-68
2021/11/12 13:50:07;;;;;;;;;8.25;8.00;;;;;13.08;63.62;101745.56;5048206;28;9680;-68
2021/11/12 13:52:42;;;;;;;;;5.25;5.25;;;;;13.05;63.75;101743.44;5035708;28;9882;-68
2021/11/12 13:55:25;;;;;;;;;8.25;8.25;;;;;12.96;64.03;101731.50;5045762;28;9400;-69
2021/11/12 13:57:59;;;;;;;;;4.50;4.50;;;;;12.82;64.36;101736.34;5073115;28;9660;-68
2021/11/12 14:00:28;;;;;;;;;8.00;8.00;;;;;12.80;64.45;101739.44;5064374;28;9658;-69
2021/11/12 14:03:38;;;;;;;;;9.00;9.00;;;;;12.67;64.83;101739.53;5051929;28;9614;-68
2021/11/12 14:06:36;;;;;;;;;9.25;8.00;;;;;12.48;65.64;101735.03;5059567;28;9905;-68
2021/11/12 14:09:33;;;;;;;;;10.75;10.75;;;;;12.42;65.71;101739.09;5053103;28;9992;-69
2021/11/12 14:12:31;;;;;;;;;8.75;7.75;;;;;12.39;65.95;101752.78;5033405;28;10028;-69
2021/11/12 14:15:32;;;;;;;;;18.50;18.50;;;;;12.23;66.71;101746.81;5033195;28;10077;-69
2021/11/12 14:21:28;;;;;;;;;10.50;9.50;;;;;11.99;67.55;101760.16;5054187;28;10041;-68
2021/11/12 14:27:38;;;;;;;;;9.00;9.00;;;;;11.86;67.89;101759.06;5052859;28;10005;-67
2021/11/12 14:31:08;;;;;;;;;7.50;7.50;;;;;11.67;68.42;101765.59;5035352;28;10078;-69
2021/11/12 14:33:26;;;;;;;;;6.50;6.50;;;;;11.65;68.42;101769.78;5047256;28;10194;-69
2021/11/12 14:36:13;;;;;;;;;10.00;10.00;;;;;11.61;68.53;101774.31;5053679;28;10404;-69
2021/11/12 14:39:06;;;;;;;;;12.00;12.00;;;;;11.51;68.86;101769.84;5052934;28;10268;-70
2021/11/12 14:48:20;;;;;;;;;9.00;9.00;;;;;11.43;69.26;101767.81;5051789;28;10516;-70
2021/11/12 14:51:19;;;;;;;;;13.75;11.25;;;;;11.45;69.05;101773.03;5071546;28;10305;-69
2021/11/12 14:54:15;;;;;;;;;8.75;8.75;;;;;11.30;69.92;101775.00;5071424;28;10313;-70
2021/11/12 15:00:19;;;;;;;;;8.50;8.50;;;;;11.10;70.60;101783.72;5058662;28;10311;-69
2021/11/12 15:03:15;;;;;;;;;9.75;9.75;;;;;11.08;70.49;101788.75;5064109;28;10229;-71
2021/11/12 15:05:43;;;;;;;;;7.25;7.25;;;;;11.02;70.56;101793.56;5051614;28;10398;-70
2021/11/12 15:08:48;;;;;;;;;8.50;8.50;;;;;11.00;70.67;101786.69;5035752;28;10342;-70
2021/11/12 15:11:50;;;;;;;;;8.75;8.75;;;;;10.92;71.16;101795.72;5036863;28;11296;-71
2021/11/12 15:14:33;;;;;;;;;9.00;9.00;;;;;10.89;71.21;101794.38;5046046;28;10602;-71
2021/11/12 15:17:29;;;;;;;;;13.00;13.00;;;;;10.91;71.19;101800.44;5049521;28;10553;-69
2021/11/12 15:20:12;;;;;;;;;5.75;5.75;;;;;10.79;71.73;101809.22;5050549;28;10537;-69
2021/11/12 15:23:21;;;;;;;;;8.25;8.25;;;;;10.78;71.51;101813.09;5048272;28;10607;-68
2021/11/12 15:26:24;;;;;;;;;12.00;12.00;;;;;10.67;71.72;101810.84;5049798;28;10733;-68
2021/11/12 15:34:28;;;;;;;;;13.50;13.50;;;;;10.29;72.43;101828.34;5032743;28;10821;-69
2021/11/12 15:44:34;;;;;;;;;17.00;17.00;;;;;10.03;73.74;101835.34;5032252;28;11131;-70
2021/11/12 15:47:20;;;;;;;;;20.00;17.00;;;;;9.85;73.81;101830.66;5032306;28;10799;-70
2021/11/12 15:49:52;;;;;;;;;60.75;51.00;;;;;9.80;73.82;101834.31;5015183;28;11204;-70
2021/11/12 16:00:19;;;;;;;;;26.00;26.00;;;;;9.67;74.09;101832.28;5053744;28;11519;-69
2021/11/12 16:25:19;;;;;;;;;31.00;26.75;;;;;9.17;76.08;101854.69;5055091;28;11460;-70
2021/11/12 16:27:51;;;;;;;;;31.75;28.00;;;;;9.00;75.76;101859.88;5038321;28;11566;-71
2021/11/12 16:30:24;;;;;;;;;24.00;24.00;;;;;9.21;75.21;101852.19;5056389;28;11517;-71
2021/11/12 16:32:54;;;;;;;;;23.75;22.00;;;;;9.01;75.24;101855.16;5055264;28;11428;-70
2021/11/12 16:35:24;;;;;;;;;28.25;28.25;;;;;9.14;74.78;101858.06;5070165;28;11457;-71
2021/11/12 16:37:57;;;;;;;;;25.00;24.00;;;;;8.98;75.17;101859.34;5055122;28;11561;-71
2021/11/12 16:41:16;;;;;;;;;31.75;28.75;;;;;9.07;74.77;101865.03;5054034;28;11541;-70
2021/11/12 16:52:36;;;;;;;;;27.50;27.50;;;;;8.51;75.79;101871.06;5055074;28;11502;-71
2021/11/12 17:07:13;;;;;;;;;33.50;31.25;;;;;8.13;77.35;101868.03;5053768;28;11502;-72
2021/11/12 17:13:03;;;;;;;;;30.00;29.00;;;;;8.02;77.18;101883.78;5044710;28;11601;-71
2021/11/12 17:46:39;;;;;;;;;49.00;42.00;;;;;7.39;78.05;101878.03;5052771;28;11565;-72
2021/11/12 17:49:15;;;;;;;;;52.00;46.00;;;;;7.41;79.06;101884.06;5053564;28;11605;-73
2021/11/12 18:03:32;;;;;;;;;40.50;39.25;;;;;7.27;79.83;101891.25;5053211;28;11678;-70
2021/11/12 18:06:38;;;;;;;;;60.50;50.25;;;;;7.12;80.07;101888.56;5051543;28;11672;-70
2021/11/12 21:47:38;;;;;;;;;61.00;52.00;;;;;5.93;82.30;101971.19;5033093;28;12345;-73
2021/11/12 21:50:36;;;;;;;;;69.00;55.50;;;;;5.84;82.30;101968.09;5034541;28;11576;-73
2021/11/12 21:53:05;;;;;;;;;61.25;50.25;;;;;5.98;81.92;101970.38;5033810;28;11557;-73
2021/11/12 21:56:02;;;;;;;;;65.25;51.00;;;;;5.77;81.64;101969.44;5032612;28;11571;-73
2021/11/12 21:58:58;;;;;;;;;62.25;50.75;;;;;5.78;81.63;101971.09;5044622;28;11543;-73
2021/11/12 22:01:54;;;;;;;;;56.50;46.75;;;;;5.69;82.08;101978.19;5021510;28;11580;-72
2021/11/12 22:04:50;;;;;;;;;63.00;51.50;;;;;5.67;81.58;101967.44;5046835;28;11561;-73
2021/11/12 22:07:45;;;;;;;;;59.25;51.00;;;;;5.68;81.35;101979.28;5040183;28;11626;-73
2021/11/12 22:10:42;;;;;;;;;58.75;48.00;;;;;5.67;81.68;101972.94;5052900;28;11542;-73
2021/11/12 22:13:39;;;;;;;;;65.75;55.75;;;;;5.68;81.17;101974.63;5052381;28;11631;-72
2021/11/12 22:16:35;;;;;;;;;56.00;48.25;;;;;5.56;81.20;101974.81;5039011;28;11595;-72
2021/11/12 22:19:31;;;;;;;;;53.25;47.50;;;;;5.60;81.53;101983.38;5039042;28;12345;-72
2021/11/12 22:22:26;;;;;;;;;57.75;48.75;;;;;5.56;81.45;101987.72;5052566;28;11554;-72
2021/11/12 22:25:22;;;;;;;;;63.00;52.25;;;;;5.55;81.99;101983.31;5039201;28;11546;-72
2021/11/12 22:28:18;;;;;;;;;81.33;63.00;;;;;5.47;82.38;101984.66;5040094;28;11635;-72
2021/11/12 22:31:14;;;;;;;;;72.67;60.00;;;;;5.58;82.13;101985.53;5052689;28;8836;-72
2021/11/12 22:34:10;;;;;;;;;66.00;53.67;;;;;5.48;82.07;101994.53;5052133;28;11528;-72
2021/11/12 22:37:05;;;;;;;;;63.33;54.00;;;;;5.49;82.05;101998.09;5052568;28;11582;-71
2021/11/12 22:40:02;;;;;;;;;66.00;55.00;;;;;5.50;82.20;101992.34;5052236;28;11546;-72
2021/11/12 22:42:34;;;;;;;;;64.00;55.00;;;;;5.43;81.90;101988.19;5053464;28;12349;-71
2021/11/12 22:45:03;;;;;;;;;63.25;53.75;;;;;5.53;82.29;101991.00;5035355;28;11573;-72
2021/11/12 22:47:59;;;;;;;;;64.00;54.25;;;;;5.49;82.06;101996.19;5038729;28;11623;-72
2021/11/12 22:50:56;;;;;;;;;68.25;56.00;;;;;5.41;82.65;102006.81;5051932;28;12276;-71
2021/11/12 22:53:23;;;;;;;;;67.00;53.33;;;;;5.39;82.91;101998.88;5053428;28;11573;-72
2021/11/12 22:56:19;;;;;;;;;61.50;53.25;;;;;5.48;82.80;102002.75;5051915;28;11554;-72
2021/11/12 22:58:55;;;;;;;;;63.25;52.50;;;;;5.48;83.61;102007.44;5053160;28;11671;-72
2021/11/12 23:01:52;;;;;;;;;50.25;44.50;;;;;5.58;83.52;102004.72;5051932;28;11581;-72
2021/11/12 23:04:48;;;;;;;;;64.50;54.50;;;;;5.59;83.79;102011.88;5038444;28;11532;-72